sensor_id;sensor_type;location;lat;lon;timestamp;P1;durP1;ratioP1;P2;durP2;ratioP2
37355;SDS011;48747;50.250;18.848;2023-03-14T00:00:14;8.98;;;3.85;;
37355;SDS011;48747;50.250;18.848;2023-03-14T00:02:17;8.98;;;3.62;;
37355;SDS011;48747;50.250;18.848;2023-03-14T00:04:20;6.10;;;3.30;;
37355;SDS011;48747;50.250;18.848;2023-03-14T00:06:23;7.17;;;3.55;;
37355;SDS011;48747;50.250;18.848;2023-03-14T00:08:27;10.55;;;3.70;;
37355;SDS011;48747;50.250;18.848;2023-03-14T00:10:30;8.10;;;3.08;;
37355;SDS011;48747;50.250;18.848;2023-03-14T00:12:33;8.03;;;3.35;;
37355;SDS011;48747;50.250;18.848;2023-03-14T00:14:36;6.15;;;3.05;;
37355;SDS011;48747;50.250;18.848;2023-03-14T00:16:39;4.90;;;2.58;;
37355;SDS011;48747;50.250;18.848;2023-03-14T00:18:42;6.33;;;2.75;;
37355;SDS011;48747;50.250;18.848;2023-03-14T00:20:45;6.17;;;2.65;;
37355;SDS011;48747;50.250;18.848;2023-03-14T00:22:48;6.70;;;2.90;;
37355;SDS011;48747;50.250;18.848;2023-03-14T00:24:51;11.33;;;4.10;;
37355;SDS011;48747;50.250;18.848;2023-03-14T00:26:54;9.50;;;3.50;;
37355;SDS011;48747;50.250;18.848;2023-03-14T00:28:57;8.13;;;3.35;;
37355;SDS011;48747;50.250;18.848;2023-03-14T00:31:03;4.97;;;2.77;;
37355;SDS011;48747;50.250;18.848;2023-03-14T00:33:08;7.42;;;3.22;;
37355;SDS011;48747;50.250;18.848;2023-03-14T00:35:11;7.80;;;3.95;;
37355;SDS011;48747;50.250;18.848;2023-03-14T00:37:14;7.95;;;3.92;;
37355;SDS011;48747;50.250;18.848;2023-03-14T00:39:17;5.87;;;3.37;;
37355;SDS011;48747;50.250;18.848;2023-03-14T00:41:21;6.75;;;2.75;;
37355;SDS011;48747;50.250;18.848;2023-03-14T00:43:25;6.03;;;3.00;;
37355;SDS011;48747;50.250;18.848;2023-03-14T00:45:28;6.40;;;2.60;;
37355;SDS011;48747;50.250;18.848;2023-03-14T00:47:31;6.37;;;2.80;;
37355;SDS011;48747;50.250;18.848;2023-03-14T00:49:36;8.38;;;2.98;;
37355;SDS011;48747;50.250;18.848;2023-03-14T00:51:39;8.60;;;2.72;;
37355;SDS011;48747;50.250;18.848;2023-03-14T00:53:42;5.97;;;2.95;;
37355;SDS011;48747;50.250;18.848;2023-03-14T00:55:47;5.15;;;2.77;;
37355;SDS011;48747;50.250;18.848;2023-03-14T00:57:51;6.25;;;3.00;;
37355;SDS011;48747;50.250;18.848;2023-03-14T00:59:55;5.25;;;2.85;;
37355;SDS011;48747;50.250;18.848;2023-03-14T01:01:58;7.58;;;3.12;;
37355;SDS011;48747;50.250;18.848;2023-03-14T01:04:03;5.35;;;2.98;;
37355;SDS011;48747;50.250;18.848;2023-03-14T01:06:10;7.42;;;3.15;;
37355;SDS011;48747;50.250;18.848;2023-03-14T01:08:12;6.28;;;2.70;;
37355;SDS011;48747;50.250;18.848;2023-03-14T01:10:15;5.78;;;2.90;;
37355;SDS011;48747;50.250;18.848;2023-03-14T01:12:18;4.58;;;2.72;;
37355;SDS011;48747;50.250;18.848;2023-03-14T01:14:22;5.90;;;2.83;;
37355;SDS011;48747;50.250;18.848;2023-03-14T01:16:28;6.10;;;2.70;;
37355;SDS011;48747;50.250;18.848;2023-03-14T01:18:31;5.08;;;2.70;;
37355;SDS011;48747;50.250;18.848;2023-03-14T01:20:36;6.22;;;2.87;;
37355;SDS011;48747;50.250;18.848;2023-03-14T01:22:40;6.58;;;2.98;;
37355;SDS011;48747;50.250;18.848;2023-03-14T01:24:43;6.37;;;2.83;;
37355;SDS011;48747;50.250;18.848;2023-03-14T01:26:46;7.35;;;2.95;;
37355;SDS011;48747;50.250;18.848;2023-03-14T01:28:50;7.58;;;3.02;;
37355;SDS011;48747;50.250;18.848;2023-03-14T01:30:54;5.87;;;3.00;;
37355;SDS011;48747;50.250;18.848;2023-03-14T01:32:57;6.97;;;3.20;;
37355;SDS011;48747;50.250;18.848;2023-03-14T01:35:00;7.75;;;3.58;;
37355;SDS011;48747;50.250;18.848;2023-03-14T01:37:03;9.88;;;4.12;;
37355;SDS011;48747;50.250;18.848;2023-03-14T01:39:08;8.98;;;3.80;;
37355;SDS011;48747;50.250;18.848;2023-03-14T01:41:12;10.60;;;4.00;;
37355;SDS011;48747;50.250;18.848;2023-03-14T01:43:18;9.68;;;3.50;;
37355;SDS011;48747;50.250;18.848;2023-03-14T01:48:00;8.53;;;3.37;;
37355;SDS011;48747;50.250;18.848;2023-03-14T01:50:04;9.83;;;3.60;;
37355;SDS011;48747;50.250;18.848;2023-03-14T01:52:15;7.47;;;3.37;;
37355;SDS011;48747;50.250;18.848;2023-03-14T01:54:33;8.73;;;3.60;;
37355;SDS011;48747;50.250;18.848;2023-03-14T01:56:41;6.62;;;3.72;;
37355;SDS011;48747;50.250;18.848;2023-03-14T01:58:48;8.70;;;4.28;;
37355;SDS011;48747;50.250;18.848;2023-03-14T02:00:53;7.40;;;4.10;;
37355;SDS011;48747;50.250;18.848;2023-03-14T02:03:00;9.25;;;4.15;;
37355;SDS011;48747;50.250;18.848;2023-03-14T02:05:13;11.10;;;5.20;;
37355;SDS011;48747;50.250;18.848;2023-03-14T02:09:30;7.37;;;4.40;;
37355;SDS011;48747;50.250;18.848;2023-03-14T02:11:33;7.75;;;4.50;;
37355;SDS011;48747;50.250;18.848;2023-03-14T02:13:37;8.73;;;5.08;;
37355;SDS011;48747;50.250;18.848;2023-03-14T02:15:40;10.43;;;5.40;;
37355;SDS011;48747;50.250;18.848;2023-03-14T02:17:43;8.03;;;4.30;;
37355;SDS011;48747;50.250;18.848;2023-03-14T02:19:54;7.75;;;3.80;;
37355;SDS011;48747;50.250;18.848;2023-03-14T02:22:10;10.88;;;4.90;;
37355;SDS011;48747;50.250;18.848;2023-03-14T02:26:44;9.77;;;5.37;;
37355;SDS011;48747;50.250;18.848;2023-03-14T02:29:05;10.80;;;4.85;;
37355;SDS011;48747;50.250;18.848;2023-03-14T02:31:08;11.10;;;4.40;;
37355;SDS011;48747;50.250;18.848;2023-03-14T02:33:20;10.13;;;4.25;;
37355;SDS011;48747;50.250;18.848;2023-03-14T02:35:22;17.25;;;7.08;;
37355;SDS011;48747;50.250;18.848;2023-03-14T02:37:30;17.12;;;6.78;;
37355;SDS011;48747;50.250;18.848;2023-03-14T02:39:41;16.55;;;5.55;;
37355;SDS011;48747;50.250;18.848;2023-03-14T02:41:42;8.43;;;4.58;;
37355;SDS011;48747;50.250;18.848;2023-03-14T02:43:47;10.95;;;4.72;;
37355;SDS011;48747;50.250;18.848;2023-03-14T02:45:50;12.90;;;4.83;;
37355;SDS011;48747;50.250;18.848;2023-03-14T02:47:56;9.38;;;4.30;;
37355;SDS011;48747;50.250;18.848;2023-03-14T02:50:02;8.53;;;3.90;;
37355;SDS011;48747;50.250;18.848;2023-03-14T02:52:06;8.68;;;4.17;;
37355;SDS011;48747;50.250;18.848;2023-03-14T02:54:09;10.28;;;4.20;;
37355;SDS011;48747;50.250;18.848;2023-03-14T02:56:12;10.70;;;4.15;;
37355;SDS011;48747;50.250;18.848;2023-03-14T02:58:15;9.35;;;4.62;;
37355;SDS011;48747;50.250;18.848;2023-03-14T03:00:19;11.80;;;4.75;;
37355;SDS011;48747;50.250;18.848;2023-03-14T03:02:22;10.13;;;4.47;;
37355;SDS011;48747;50.250;18.848;2023-03-14T03:04:26;9.23;;;4.05;;
37355;SDS011;48747;50.250;18.848;2023-03-14T03:06:29;11.22;;;4.28;;
37355;SDS011;48747;50.250;18.848;2023-03-14T03:08:32;14.25;;;4.33;;
37355;SDS011;48747;50.250;18.848;2023-03-14T03:10:35;9.20;;;4.10;;
37355;SDS011;48747;50.250;18.848;2023-03-14T03:12:38;10.13;;;4.08;;
37355;SDS011;48747;50.250;18.848;2023-03-14T03:14:42;9.90;;;3.60;;
37355;SDS011;48747;50.250;18.848;2023-03-14T03:16:45;9.43;;;5.03;;
37355;SDS011;48747;50.250;18.848;2023-03-14T03:18:48;11.40;;;4.67;;
37355;SDS011;48747;50.250;18.848;2023-03-14T03:20:51;10.30;;;4.58;;
37355;SDS011;48747;50.250;18.848;2023-03-14T03:22:54;10.13;;;3.65;;
37355;SDS011;48747;50.250;18.848;2023-03-14T03:24:57;7.47;;;3.87;;
37355;SDS011;48747;50.250;18.848;2023-03-14T03:27:00;9.78;;;4.37;;
37355;SDS011;48747;50.250;18.848;2023-03-14T03:29:03;7.35;;;3.75;;
37355;SDS011;48747;50.250;18.848;2023-03-14T03:31:07;9.43;;;3.95;;
37355;SDS011;48747;50.250;18.848;2023-03-14T03:33:11;9.23;;;4.85;;
37355;SDS011;48747;50.250;18.848;2023-03-14T03:35:14;8.70;;;3.83;;
37355;SDS011;48747;50.250;18.848;2023-03-14T03:37:18;11.10;;;4.37;;
37355;SDS011;48747;50.250;18.848;2023-03-14T03:39:21;6.97;;;3.27;;
37355;SDS011;48747;50.250;18.848;2023-03-14T03:41:24;7.08;;;3.30;;
37355;SDS011;48747;50.250;18.848;2023-03-14T03:43:27;5.53;;;2.85;;
37355;SDS011;48747;50.250;18.848;2023-03-14T03:45:30;7.28;;;2.95;;
37355;SDS011;48747;50.250;18.848;2023-03-14T03:47:34;6.62;;;3.60;;
37355;SDS011;48747;50.250;18.848;2023-03-14T03:49:39;7.15;;;3.55;;
37355;SDS011;48747;50.250;18.848;2023-03-14T03:51:41;7.05;;;3.40;;
37355;SDS011;48747;50.250;18.848;2023-03-14T03:53:46;7.12;;;3.27;;
37355;SDS011;48747;50.250;18.848;2023-03-14T03:55:51;6.00;;;3.30;;
37355;SDS011;48747;50.250;18.848;2023-03-14T03:57:53;7.12;;;3.33;;
37355;SDS011;48747;50.250;18.848;2023-03-14T03:59:56;9.43;;;3.72;;
37355;SDS011;48747;50.250;18.848;2023-03-14T04:01:59;9.58;;;3.65;;
37355;SDS011;48747;50.250;18.848;2023-03-14T04:04:03;8.45;;;3.98;;
37355;SDS011;48747;50.250;18.848;2023-03-14T04:06:09;10.55;;;4.20;;
37355;SDS011;48747;50.250;18.848;2023-03-14T04:08:15;10.38;;;3.92;;
37355;SDS011;48747;50.250;18.848;2023-03-14T04:10:18;8.35;;;3.90;;
37355;SDS011;48747;50.250;18.848;2023-03-14T04:12:21;9.48;;;3.47;;
37355;SDS011;48747;50.250;18.848;2023-03-14T04:14:24;9.73;;;3.35;;
37355;SDS011;48747;50.250;18.848;2023-03-14T04:16:27;8.03;;;3.67;;
37355;SDS011;48747;50.250;18.848;2023-03-14T04:18:32;8.85;;;3.83;;
37355;SDS011;48747;50.250;18.848;2023-03-14T04:20:35;8.20;;;3.65;;
37355;SDS011;48747;50.250;18.848;2023-03-14T04:22:38;7.72;;;3.72;;
37355;SDS011;48747;50.250;18.848;2023-03-14T04:24:41;8.08;;;3.95;;
37355;SDS011;48747;50.250;18.848;2023-03-14T04:26:44;8.05;;;3.87;;
37355;SDS011;48747;50.250;18.848;2023-03-14T04:28:47;11.80;;;4.12;;
37355;SDS011;48747;50.250;18.848;2023-03-14T04:30:50;12.13;;;4.10;;
37355;SDS011;48747;50.250;18.848;2023-03-14T04:32:53;7.97;;;4.30;;
37355;SDS011;48747;50.250;18.848;2023-03-14T04:34:56;12.60;;;4.92;;
37355;SDS011;48747;50.250;18.848;2023-03-14T04:36:59;9.60;;;4.95;;
37355;SDS011;48747;50.250;18.848;2023-03-14T04:39:02;10.28;;;4.60;;
37355;SDS011;48747;50.250;18.848;2023-03-14T04:41:06;12.58;;;4.87;;
37355;SDS011;48747;50.250;18.848;2023-03-14T04:43:09;11.12;;;4.17;;
37355;SDS011;48747;50.250;18.848;2023-03-14T04:45:13;6.65;;;3.83;;
37355;SDS011;48747;50.250;18.848;2023-03-14T04:47:16;7.35;;;3.67;;
37355;SDS011;48747;50.250;18.848;2023-03-14T04:49:19;12.37;;;4.10;;
37355;SDS011;48747;50.250;18.848;2023-03-14T04:51:22;8.40;;;3.90;;
37355;SDS011;48747;50.250;18.848;2023-03-14T04:53:27;12.47;;;4.58;;
37355;SDS011;48747;50.250;18.848;2023-03-14T04:55:30;11.63;;;5.03;;
37355;SDS011;48747;50.250;18.848;2023-03-14T04:57:34;12.37;;;6.10;;
37355;SDS011;48747;50.250;18.848;2023-03-14T04:59:37;13.93;;;5.78;;
37355;SDS011;48747;50.250;18.848;2023-03-14T05:01:40;17.05;;;5.42;;
37355;SDS011;48747;50.250;18.848;2023-03-14T05:03:46;9.38;;;4.62;;
37355;SDS011;48747;50.250;18.848;2023-03-14T05:05:49;9.48;;;4.30;;
37355;SDS011;48747;50.250;18.848;2023-03-14T05:07:52;11.75;;;4.70;;
37355;SDS011;48747;50.250;18.848;2023-03-14T05:09:55;10.98;;;5.25;;
37355;SDS011;48747;50.250;18.848;2023-03-14T05:12:00;14.40;;;5.97;;
37355;SDS011;48747;50.250;18.848;2023-03-14T05:14:04;12.40;;;5.40;;
37355;SDS011;48747;50.250;18.848;2023-03-14T05:16:08;13.05;;;6.10;;
37355;SDS011;48747;50.250;18.848;2023-03-14T05:18:12;16.42;;;6.12;;
37355;SDS011;48747;50.250;18.848;2023-03-14T05:20:15;12.35;;;5.92;;
37355;SDS011;48747;50.250;18.848;2023-03-14T05:22:18;12.00;;;5.83;;
37355;SDS011;48747;50.250;18.848;2023-03-14T05:24:21;16.00;;;6.67;;
37355;SDS011;48747;50.250;18.848;2023-03-14T05:26:24;16.40;;;6.70;;
37355;SDS011;48747;50.250;18.848;2023-03-14T05:28:27;17.73;;;6.67;;
37355;SDS011;48747;50.250;18.848;2023-03-14T05:30:30;19.32;;;7.28;;
37355;SDS011;48747;50.250;18.848;2023-03-14T05:32:34;19.02;;;7.83;;
37355;SDS011;48747;50.250;18.848;2023-03-14T05:34:37;30.77;;;14.13;;
37355;SDS011;48747;50.250;18.848;2023-03-14T05:36:41;62.62;;;27.70;;
37355;SDS011;48747;50.250;18.848;2023-03-14T05:38:44;68.22;;;29.27;;
37355;SDS011;48747;50.250;18.848;2023-03-14T05:40:47;60.65;;;29.00;;
37355;SDS011;48747;50.250;18.848;2023-03-14T05:42:55;38.55;;;17.25;;
37355;SDS011;48747;50.250;18.848;2023-03-14T05:44:55;22.05;;;10.90;;
37355;SDS011;48747;50.250;18.848;2023-03-14T05:46:58;19.07;;;9.80;;
37355;SDS011;48747;50.250;18.848;2023-03-14T05:49:02;16.57;;;6.80;;
37355;SDS011;48747;50.250;18.848;2023-03-14T05:51:06;9.48;;;5.50;;
37355;SDS011;48747;50.250;18.848;2023-03-14T05:53:09;9.63;;;4.97;;
37355;SDS011;48747;50.250;18.848;2023-03-14T05:55:12;11.88;;;4.87;;
37355;SDS011;48747;50.250;18.848;2023-03-14T05:57:15;11.03;;;5.28;;
37355;SDS011;48747;50.250;18.848;2023-03-14T05:59:18;14.55;;;4.50;;
37355;SDS011;48747;50.250;18.848;2023-03-14T06:01:21;10.88;;;3.80;;
37355;SDS011;48747;50.250;18.848;2023-03-14T06:03:24;8.20;;;4.03;;
37355;SDS011;48747;50.250;18.848;2023-03-14T06:05:27;7.78;;;3.45;;
37355;SDS011;48747;50.250;18.848;2023-03-14T06:07:30;9.23;;;3.87;;
37355;SDS011;48747;50.250;18.848;2023-03-14T06:09:33;7.55;;;3.55;;
37355;SDS011;48747;50.250;18.848;2023-03-14T06:11:38;9.00;;;3.60;;
37355;SDS011;48747;50.250;18.848;2023-03-14T06:13:41;11.83;;;4.17;;
37355;SDS011;48747;50.250;18.848;2023-03-14T06:15:44;9.90;;;3.83;;
37355;SDS011;48747;50.250;18.848;2023-03-14T06:17:47;9.95;;;3.75;;
37355;SDS011;48747;50.250;18.848;2023-03-14T06:19:50;9.25;;;4.00;;
37355;SDS011;48747;50.250;18.848;2023-03-14T06:21:53;9.20;;;3.55;;
37355;SDS011;48747;50.250;18.848;2023-03-14T06:23:56;7.28;;;3.60;;
37355;SDS011;48747;50.250;18.848;2023-03-14T06:25:59;8.50;;;4.12;;
37355;SDS011;48747;50.250;18.848;2023-03-14T06:28:02;6.97;;;3.77;;
37355;SDS011;48747;50.250;18.848;2023-03-14T06:30:06;7.22;;;3.83;;
37355;SDS011;48747;50.250;18.848;2023-03-14T06:32:10;6.08;;;3.27;;
37355;SDS011;48747;50.250;18.848;2023-03-14T06:34:18;9.33;;;3.60;;
37355;SDS011;48747;50.250;18.848;2023-03-14T06:36:17;12.58;;;4.78;;
37355;SDS011;48747;50.250;18.848;2023-03-14T06:38:20;10.00;;;4.40;;
37355;SDS011;48747;50.250;18.848;2023-03-14T06:40:23;7.10;;;4.65;;
37355;SDS011;48747;50.250;18.848;2023-03-14T06:42:26;8.20;;;4.25;;
37355;SDS011;48747;50.250;18.848;2023-03-14T06:44:29;9.00;;;4.08;;
37355;SDS011;48747;50.250;18.848;2023-03-14T06:46:32;11.63;;;4.87;;
37355;SDS011;48747;50.250;18.848;2023-03-14T06:48:35;15.72;;;5.35;;
37355;SDS011;48747;50.250;18.848;2023-03-14T06:50:39;12.63;;;5.03;;
37355;SDS011;48747;50.250;18.848;2023-03-14T06:52:42;9.20;;;4.53;;
37355;SDS011;48747;50.250;18.848;2023-03-14T06:54:46;14.78;;;5.75;;
37355;SDS011;48747;50.250;18.848;2023-03-14T06:56:49;16.55;;;5.72;;
37355;SDS011;48747;50.250;18.848;2023-03-14T06:58:52;16.07;;;5.37;;
37355;SDS011;48747;50.250;18.848;2023-03-14T07:00:55;14.63;;;5.30;;
37355;SDS011;48747;50.250;18.848;2023-03-14T07:02:59;9.40;;;4.22;;
37355;SDS011;48747;50.250;18.848;2023-03-14T07:05:02;12.80;;;4.45;;
37355;SDS011;48747;50.250;18.848;2023-03-14T07:07:06;9.60;;;3.35;;
37355;SDS011;48747;50.250;18.848;2023-03-14T07:09:10;14.05;;;4.35;;
37355;SDS011;48747;50.250;18.848;2023-03-14T07:11:13;12.47;;;4.47;;
37355;SDS011;48747;50.250;18.848;2023-03-14T07:13:16;8.65;;;4.08;;
37355;SDS011;48747;50.250;18.848;2023-03-14T07:15:19;9.33;;;4.17;;
37355;SDS011;48747;50.250;18.848;2023-03-14T07:17:23;9.73;;;4.22;;
37355;SDS011;48747;50.250;18.848;2023-03-14T07:19:26;11.83;;;4.55;;
37355;SDS011;48747;50.250;18.848;2023-03-14T07:21:29;9.98;;;4.60;;
37355;SDS011;48747;50.250;18.848;2023-03-14T07:23:33;19.48;;;8.60;;
37355;SDS011;48747;50.250;18.848;2023-03-14T07:25:36;11.50;;;5.30;;
37355;SDS011;48747;50.250;18.848;2023-03-14T07:27:39;10.20;;;4.28;;
37355;SDS011;48747;50.250;18.848;2023-03-14T07:29:42;11.12;;;5.25;;
37355;SDS011;48747;50.250;18.848;2023-03-14T07:31:45;12.53;;;4.78;;
37355;SDS011;48747;50.250;18.848;2023-03-14T07:33:48;10.53;;;4.35;;
37355;SDS011;48747;50.250;18.848;2023-03-14T07:35:51;10.10;;;5.40;;
37355;SDS011;48747;50.250;18.848;2023-03-14T07:37:54;14.55;;;7.22;;
37355;SDS011;48747;50.250;18.848;2023-03-14T07:39:57;17.95;;;11.15;;
37355;SDS011;48747;50.250;18.848;2023-03-14T07:42:00;24.82;;;13.43;;
37355;SDS011;48747;50.250;18.848;2023-03-14T07:44:07;38.25;;;22.52;;
37355;SDS011;48747;50.250;18.848;2023-03-14T07:46:10;37.15;;;21.97;;
37355;SDS011;48747;50.250;18.848;2023-03-14T07:48:14;27.40;;;15.35;;
37355;SDS011;48747;50.250;18.848;2023-03-14T07:50:17;17.62;;;10.30;;
37355;SDS011;48747;50.250;18.848;2023-03-14T07:52:20;16.52;;;8.40;;
37355;SDS011;48747;50.250;18.848;2023-03-14T07:54:24;14.78;;;6.90;;
37355;SDS011;48747;50.250;18.848;2023-03-14T07:56:27;15.60;;;6.40;;
37355;SDS011;48747;50.250;18.848;2023-03-14T07:58:30;16.90;;;6.47;;
37355;SDS011;48747;50.250;18.848;2023-03-14T08:00:34;14.35;;;5.65;;
37355;SDS011;48747;50.250;18.848;2023-03-14T08:02:37;14.95;;;6.33;;
37355;SDS011;48747;50.250;18.848;2023-03-14T08:04:40;15.68;;;6.37;;
37355;SDS011;48747;50.250;18.848;2023-03-14T08:06:43;13.90;;;6.28;;
37355;SDS011;48747;50.250;18.848;2023-03-14T08:08:46;14.03;;;6.10;;
37355;SDS011;48747;50.250;18.848;2023-03-14T08:10:49;13.60;;;5.12;;
37355;SDS011;48747;50.250;18.848;2023-03-14T08:12:56;11.38;;;5.15;;
37355;SDS011;48747;50.250;18.848;2023-03-14T08:15:00;13.90;;;5.40;;
37355;SDS011;48747;50.250;18.848;2023-03-14T08:17:03;9.18;;;5.28;;
37355;SDS011;48747;50.250;18.848;2023-03-14T08:19:09;13.98;;;5.80;;
37355;SDS011;48747;50.250;18.848;2023-03-14T08:21:14;16.23;;;5.08;;
37355;SDS011;48747;50.250;18.848;2023-03-14T08:23:18;8.85;;;4.62;;
37355;SDS011;48747;50.250;18.848;2023-03-14T08:25:23;8.20;;;4.20;;
37355;SDS011;48747;50.250;18.848;2023-03-14T08:27:27;10.48;;;4.00;;
37355;SDS011;48747;50.250;18.848;2023-03-14T08:29:36;12.37;;;5.42;;
37355;SDS011;48747;50.250;18.848;2023-03-14T08:31:40;15.68;;;6.25;;
37355;SDS011;48747;50.250;18.848;2023-03-14T08:33:49;13.62;;;5.08;;
37355;SDS011;48747;50.250;18.848;2023-03-14T08:35:52;12.88;;;6.12;;
37355;SDS011;48747;50.250;18.848;2023-03-14T08:37:56;12.45;;;5.37;;
37355;SDS011;48747;50.250;18.848;2023-03-14T08:40:00;7.65;;;4.33;;
37355;SDS011;48747;50.250;18.848;2023-03-14T08:42:06;11.78;;;5.28;;
37355;SDS011;48747;50.250;18.848;2023-03-14T08:44:09;10.68;;;5.28;;
37355;SDS011;48747;50.250;18.848;2023-03-14T08:46:15;11.10;;;4.80;;
37355;SDS011;48747;50.250;18.848;2023-03-14T08:48:18;13.58;;;5.58;;
37355;SDS011;48747;50.250;18.848;2023-03-14T08:50:22;14.95;;;6.15;;
37355;SDS011;48747;50.250;18.848;2023-03-14T08:52:26;20.05;;;8.20;;
37355;SDS011;48747;50.250;18.848;2023-03-14T08:54:29;15.80;;;6.03;;
37355;SDS011;48747;50.250;18.848;2023-03-14T08:56:33;11.70;;;5.33;;
37355;SDS011;48747;50.250;18.848;2023-03-14T08:58:37;11.88;;;5.75;;
37355;SDS011;48747;50.250;18.848;2023-03-14T09:00:42;12.47;;;5.87;;
37355;SDS011;48747;50.250;18.848;2023-03-14T09:02:45;17.05;;;7.65;;
37355;SDS011;48747;50.250;18.848;2023-03-14T09:04:49;16.52;;;7.83;;
37355;SDS011;48747;50.250;18.848;2023-03-14T09:06:54;15.13;;;7.05;;
37355;SDS011;48747;50.250;18.848;2023-03-14T09:08:59;19.05;;;8.90;;
37355;SDS011;48747;50.250;18.848;2023-03-14T09:11:02;24.45;;;9.50;;
37355;SDS011;48747;50.250;18.848;2023-03-14T09:13:07;21.25;;;8.88;;
37355;SDS011;48747;50.250;18.848;2023-03-14T09:15:11;13.83;;;7.75;;
37355;SDS011;48747;50.250;18.848;2023-03-14T09:17:15;13.93;;;5.97;;
37355;SDS011;48747;50.250;18.848;2023-03-14T09:19:20;13.55;;;5.80;;
37355;SDS011;48747;50.250;18.848;2023-03-14T09:21:26;16.10;;;7.08;;
37355;SDS011;48747;50.250;18.848;2023-03-14T09:23:29;14.10;;;6.72;;
37355;SDS011;48747;50.250;18.848;2023-03-14T09:25:34;16.05;;;8.10;;
37355;SDS011;48747;50.250;18.848;2023-03-14T09:27:38;15.05;;;6.45;;
37355;SDS011;48747;50.250;18.848;2023-03-14T09:29:42;13.90;;;6.10;;
37355;SDS011;48747;50.250;18.848;2023-03-14T09:31:45;16.62;;;6.47;;
37355;SDS011;48747;50.250;18.848;2023-03-14T09:33:51;14.85;;;6.70;;
37355;SDS011;48747;50.250;18.848;2023-03-14T09:35:53;13.15;;;4.67;;
37355;SDS011;48747;50.250;18.848;2023-03-14T09:37:58;15.03;;;7.05;;
37355;SDS011;48747;50.250;18.848;2023-03-14T09:40:02;10.88;;;5.83;;
37355;SDS011;48747;50.250;18.848;2023-03-14T09:42:07;10.93;;;4.30;;
37355;SDS011;48747;50.250;18.848;2023-03-14T09:44:16;8.68;;;4.70;;
37355;SDS011;48747;50.250;18.848;2023-03-14T09:46:36;12.10;;;4.97;;
37355;SDS011;48747;50.250;18.848;2023-03-14T09:48:41;9.93;;;4.40;;
37355;SDS011;48747;50.250;18.848;2023-03-14T09:50:47;11.97;;;4.58;;
37355;SDS011;48747;50.250;18.848;2023-03-14T09:52:59;8.70;;;3.85;;
37355;SDS011;48747;50.250;18.848;2023-03-14T09:55:05;7.30;;;3.35;;
37355;SDS011;48747;50.250;18.848;2023-03-14T09:57:11;10.15;;;4.30;;
37355;SDS011;48747;50.250;18.848;2023-03-14T09:59:19;9.68;;;3.85;;
37355;SDS011;48747;50.250;18.848;2023-03-14T10:01:24;17.15;;;4.78;;
37355;SDS011;48747;50.250;18.848;2023-03-14T10:03:32;9.63;;;4.97;;
37355;SDS011;48747;50.250;18.848;2023-03-14T10:05:36;13.50;;;4.80;;
37355;SDS011;48747;50.250;18.848;2023-03-14T10:07:39;11.15;;;4.80;;
37355;SDS011;48747;50.250;18.848;2023-03-14T10:09:44;11.48;;;5.20;;
37355;SDS011;48747;50.250;18.848;2023-03-14T10:11:49;27.85;;;5.70;;
37355;SDS011;48747;50.250;18.848;2023-03-14T10:16:13;17.07;;;6.85;;
37355;SDS011;48747;50.250;18.848;2023-03-14T10:18:16;14.15;;;6.10;;
37355;SDS011;48747;50.250;18.848;2023-03-14T10:20:39;18.15;;;8.35;;
37355;SDS011;48747;50.250;18.848;2023-03-14T10:22:43;20.08;;;10.00;;
37355;SDS011;48747;50.250;18.848;2023-03-14T10:24:56;20.08;;;10.13;;
37355;SDS011;48747;50.250;18.848;2023-03-14T10:27:10;20.00;;;9.85;;
37355;SDS011;48747;50.250;18.848;2023-03-14T10:29:12;22.93;;;10.20;;
37355;SDS011;48747;50.250;18.848;2023-03-14T10:31:17;22.20;;;10.68;;
37355;SDS011;48747;50.250;18.848;2023-03-14T10:33:23;15.70;;;7.50;;
37355;SDS011;48747;50.250;18.848;2023-03-14T10:35:28;15.20;;;6.58;;
37355;SDS011;48747;50.250;18.848;2023-03-14T10:37:34;11.83;;;5.83;;
37355;SDS011;48747;50.250;18.848;2023-03-14T10:39:43;16.10;;;5.97;;
37355;SDS011;48747;50.250;18.848;2023-03-14T10:42:03;11.60;;;5.03;;
37355;SDS011;48747;50.250;18.848;2023-03-14T10:44:07;14.40;;;5.12;;
37355;SDS011;48747;50.250;18.848;2023-03-14T10:46:15;12.63;;;5.37;;
37355;SDS011;48747;50.250;18.848;2023-03-14T10:48:22;9.48;;;4.35;;
37355;SDS011;48747;50.250;18.848;2023-03-14T10:50:28;10.78;;;5.17;;
37355;SDS011;48747;50.250;18.848;2023-03-14T10:52:32;11.15;;;4.87;;
37355;SDS011;48747;50.250;18.848;2023-03-14T10:54:36;9.28;;;5.28;;
37355;SDS011;48747;50.250;18.848;2023-03-14T10:56:55;12.58;;;6.87;;
37355;SDS011;48747;50.250;18.848;2023-03-14T10:58:49;11.57;;;5.47;;
37355;SDS011;48747;50.250;18.848;2023-03-14T11:03:11;8.25;;;4.60;;
37355;SDS011;48747;50.250;18.848;2023-03-14T11:06:05;10.95;;;4.95;;
37355;SDS011;48747;50.250;18.848;2023-03-14T11:11:46;9.53;;;5.40;;
37355;SDS011;48747;50.250;18.848;2023-03-14T11:16:09;13.58;;;5.78;;
37355;SDS011;48747;50.250;18.848;2023-03-14T11:20:53;12.23;;;6.12;;
37355;SDS011;48747;50.250;18.848;2023-03-14T11:23:02;13.48;;;6.20;;
37355;SDS011;48747;50.250;18.848;2023-03-14T11:28:09;11.05;;;5.12;;
37355;SDS011;48747;50.250;18.848;2023-03-14T11:32:34;11.48;;;4.85;;
37355;SDS011;48747;50.250;18.848;2023-03-14T11:34:40;12.63;;;6.25;;
37355;SDS011;48747;50.250;18.848;2023-03-14T11:36:55;12.03;;;6.42;;
37355;SDS011;48747;50.250;18.848;2023-03-14T11:39:02;11.30;;;5.20;;
37355;SDS011;48747;50.250;18.848;2023-03-14T11:41:10;10.95;;;5.62;;
37355;SDS011;48747;50.250;18.848;2023-03-14T11:45:44;11.50;;;5.97;;
37355;SDS011;48747;50.250;18.848;2023-03-14T11:47:55;11.18;;;6.22;;
37355;SDS011;48747;50.250;18.848;2023-03-14T11:50:21;18.67;;;6.53;;
37355;SDS011;48747;50.250;18.848;2023-03-14T11:52:35;15.00;;;6.62;;
37355;SDS011;48747;50.250;18.848;2023-03-14T11:56:58;10.32;;;5.42;;
37355;SDS011;48747;50.250;18.848;2023-03-14T11:59:03;11.93;;;5.95;;
37355;SDS011;48747;50.250;18.848;2023-03-14T12:01:13;9.80;;;5.40;;
37355;SDS011;48747;50.250;18.848;2023-03-14T12:03:26;10.20;;;5.35;;
37355;SDS011;48747;50.250;18.848;2023-03-14T12:07:57;11.10;;;5.92;;
37355;SDS011;48747;50.250;18.848;2023-03-14T12:10:12;12.25;;;6.80;;
37355;SDS011;48747;50.250;18.848;2023-03-14T12:12:20;13.03;;;6.37;;
37355;SDS011;48747;50.250;18.848;2023-03-14T12:14:36;12.68;;;5.40;;
37355;SDS011;48747;50.250;18.848;2023-03-14T12:16:41;15.18;;;6.90;;
37355;SDS011;48747;50.250;18.848;2023-03-14T12:18:48;14.03;;;7.28;;
37355;SDS011;48747;50.250;18.848;2023-03-14T12:21:01;13.62;;;7.00;;
37355;SDS011;48747;50.250;18.848;2023-03-14T12:23:10;16.55;;;7.90;;
37355;SDS011;48747;50.250;18.848;2023-03-14T12:29:58;12.35;;;6.10;;
37355;SDS011;48747;50.250;18.848;2023-03-14T12:32:26;10.18;;;5.10;;
37355;SDS011;48747;50.250;18.848;2023-03-14T12:34:30;14.05;;;6.67;;
37355;SDS011;48747;50.250;18.848;2023-03-14T12:39:06;14.13;;;6.58;;
37355;SDS011;48747;50.250;18.848;2023-03-14T12:43:46;16.95;;;7.20;;
37355;SDS011;48747;50.250;18.848;2023-03-14T12:46:06;12.28;;;7.15;;
37355;SDS011;48747;50.250;18.848;2023-03-14T12:48:22;15.33;;;6.00;;
37355;SDS011;48747;50.250;18.848;2023-03-14T12:50:39;15.55;;;7.55;;
37355;SDS011;48747;50.250;18.848;2023-03-14T12:57:37;17.82;;;8.10;;
37355;SDS011;48747;50.250;18.848;2023-03-14T12:59:58;13.32;;;8.13;;
37355;SDS011;48747;50.250;18.848;2023-03-14T13:04:28;13.98;;;7.10;;